Elkton, Virginia
Current Conditions -  °F | °C
As of 9:15 PM on Thursday 18 Dec 2014 (Local Time) from K8W2 Reporting Station
Overcast Overcast  
Wind Chill: 26°   Ceiling: 10000
Heat Index: 32°   Visibility: 10mi
Dew Point: 23°   Wind: 7mph
Humidity: 69%   Direction: 50°NE
Pressure: 30.08"   Gusts: NA
Location:  38.41°N, 78.62°W
Report Text: K8W2 190215Z AUTO 05006KT 10SM OVC100 00/M05 A3008 RMK AO1 T00001051
Loading
Personal Weather Stations






























Interactive Weather Map New forecast layout! Learn more

10-Day Weather Forecast

Advertisements
Track Severe Weather on mobile